Time;durP1;ratioP1;P1;durP2;ratioP2;P2;SDS_P1;SDS_P2;PMS_P1;PMS_P2;Temp;Humidity;BMP_temperature;BMP_pressure;BME280_temperature;BME280_humidity;BME280_pressure;Samples;Min_cycle;Max_cycle;Signal;HPM_P1;HPM_P2
2022/12/19 00:02:21;;;;;;;55.97;23.52;;;;;;;;;;4990227;28;20056;-69
2022/12/19 00:04:46;;;;;;;70.32;27.70;;;;;;;;;;4989041;28;20026;-69
2022/12/19 00:07:12;;;;;;;64.18;27.92;;;;;;;;;;4990328;28;20090;-69
2022/12/19 00:09:37;;;;;;;74.95;29.48;;;;;;;;;;4993115;28;20463;-69
2022/12/19 00:12:02;;;;;;;66.40;25.33;;;;;;;;;;4994745;28;20015;-69
2022/12/19 00:14:27;;;;;;;65.13;25.63;;;;;;;;;;4994585;28;20026;-69
2022/12/19 00:16:52;;;;;;;53.92;19.77;;;;;;;;;;4994343;28;20018;-69
2022/12/19 00:19:18;;;;;;;54.90;20.17;;;;;;;;;;4995509;28;20019;-69
2022/12/19 00:21:43;;;;;;;45.83;17.75;;;;;;;;;;4993885;28;20542;-69
2022/12/19 00:24:09;;;;;;;61.45;26.63;;;;;;;;;;4994431;28;20542;-69
2022/12/19 00:26:35;;;;;;;66.43;25.80;;;;;;;;;;4998304;28;20026;-69
2022/12/19 00:29:02;;;;;;;69.68;33.17;;;;;;;;;;4994144;28;20389;-69
2022/12/19 00:31:28;;;;;;;47.33;19.83;;;;;;;;;;4994025;28;20018;-69
2022/12/19 00:33:54;;;;;;;38.70;17.55;;;;;;;;;;4992511;28;20482;-69
2022/12/19 00:36:21;;;;;;;52.85;19.67;;;;;;;;;;4993928;28;20022;-69
2022/12/19 00:38:46;;;;;;;48.38;17.50;;;;;;;;;;4993826;28;20061;-69
2022/12/19 00:41:15;;;;;;;48.95;17.67;;;;;;;;;;4993870;28;20426;-69
2022/12/19 00:43:42;;;;;;;47.40;16.45;;;;;;;;;;4994132;28;20443;-69
2022/12/19 00:46:09;;;;;;;48.28;18.55;;;;;;;;;;4994063;28;20383;-69
2022/12/19 00:48:35;;;;;;;50.42;19.48;;;;;;;;;;4992494;28;20464;-69
2022/12/19 00:51:21;;;;;;;45.53;17.85;;;;;;;;;;4993705;28;20434;-69
2022/12/19 00:53:46;;;;;;;56.00;20.63;;;;;;;;;;4993193;28;20179;-69
2022/12/19 00:56:13;;;;;;;58.80;21.17;;;;;;;;;;4994090;28;20014;-69
2022/12/19 00:58:39;;;;;;;44.95;17.70;;;;;;;;;;4997618;28;20093;-69
2022/12/19 01:01:05;;;;;;;50.58;19.27;;;;;;;;;;4995725;28;20492;-69
2022/12/19 01:03:30;;;;;;;68.00;28.05;;;;;;;;;;4993473;28;20026;-69
2022/12/19 01:05:56;;;;;;;61.67;28.75;;;;;;;;;;4993499;28;20022;-69
2022/12/19 01:08:21;;;;;;;54.10;20.98;;;;;;;;;;4993769;28;20038;-69
2022/12/19 01:10:47;;;;;;;56.45;20.15;;;;;;;;;;4993336;28;20022;-69
2022/12/19 01:13:12;;;;;;;68.90;27.73;;;;;;;;;;4993484;28;20014;-69
2022/12/19 01:15:38;;;;;;;47.97;21.10;;;;;;;;;;4992186;28;20029;-69
2022/12/19 01:18:03;;;;;;;45.40;16.77;;;;;;;;;;4996073;28;20025;-69
2022/12/19 01:20:28;;;;;;;64.72;23.88;;;;;;;;;;4993319;28;20026;-69
2022/12/19 01:22:54;;;;;;;58.28;25.50;;;;;;;;;;4994766;28;20037;-69
2022/12/19 01:25:19;;;;;;;43.90;16.92;;;;;;;;;;4993046;28;20093;-69
2022/12/19 01:27:44;;;;;;;52.42;19.90;;;;;;;;;;4992534;28;20101;-69
2022/12/19 01:30:09;;;;;;;62.70;21.60;;;;;;;;;;4991798;28;20424;-69
2022/12/19 01:32:35;;;;;;;60.13;25.25;;;;;;;;;;4992449;28;20053;-69
2022/12/19 01:35:00;;;;;;;49.38;21.23;;;;;;;;;;4997803;28;20025;-69
2022/12/19 01:37:25;;;;;;;41.60;15.32;;;;;;;;;;4992735;28;20025;-69
2022/12/19 01:39:50;;;;;;;57.53;17.10;;;;;;;;;;4992327;28;20018;-69
2022/12/19 01:42:17;;;;;;;66.73;25.03;;;;;;;;;;4992593;28;20304;-69
2022/12/19 01:45:02;;;;;;;35.00;12.52;;;;;;;;;;4991333;28;20281;-69
2022/12/19 01:47:28;;;;;;;36.28;12.38;;;;;;;;;;4992575;28;20014;-69
2022/12/19 01:49:53;;;;;;;74.22;25.10;;;;;;;;;;4992696;28;20541;-69
2022/12/19 01:52:18;;;;;;;50.40;17.70;;;;;;;;;;4995139;28;20022;-69
2022/12/19 01:54:43;;;;;;;43.67;17.33;;;;;;;;;;4992070;28;20311;-69
2022/12/19 01:57:11;;;;;;;62.78;23.67;;;;;;;;;;4992431;28;20072;-69
2022/12/19 01:59:50;;;;;;;48.72;18.48;;;;;;;;;;4990984;28;20018;-69
2022/12/19 02:02:28;;;;;;;23.50;9.70;;;;;;;;;;4990348;28;20038;-69
2022/12/19 02:04:53;;;;;;;49.22;16.63;;;;;;;;;;4991857;28;20022;-69
2022/12/19 02:07:20;;;;;;;41.00;15.43;;;;;;;;;;4992773;28;20018;-69
2022/12/19 02:09:47;;;;;;;48.83;18.58;;;;;;;;;;4993252;28;20037;-69
2022/12/19 02:12:13;;;;;;;49.20;19.75;;;;;;;;;;4991046;28;20573;-70
2022/12/19 02:14:38;;;;;;;27.63;10.43;;;;;;;;;;4992018;28;20073;-70
2022/12/19 02:17:21;;;;;;;58.83;23.25;;;;;;;;;;4991824;28;20069;-70
2022/12/19 02:19:52;;;;;;;48.85;15.35;;;;;;;;;;4989489;28;20410;-70
2022/12/19 02:22:31;;;;;;;36.35;13.43;;;;;;;;;;4992923;28;20042;-70
2022/12/19 02:24:59;;;;;;;63.95;27.35;;;;;;;;;;4990824;28;20046;-70
2022/12/19 02:27:24;;;;;;;46.17;14.23;;;;;;;;;;4990816;28;20076;-70
2022/12/19 02:29:59;;;;;;;50.87;19.87;;;;;;;;;;4991392;28;20415;-70
2022/12/19 02:32:30;;;;;;;46.60;18.58;;;;;;;;;;4990281;28;20254;-70
2022/12/19 02:35:01;;;;;;;51.95;23.90;;;;;;;;;;4990982;28;20022;-70
2022/12/19 02:37:31;;;;;;;36.00;15.07;;;;;;;;;;4991535;28;20475;-70
2022/12/19 02:40:12;;;;;;;51.72;17.90;;;;;;;;;;4990323;28;20030;-70
2022/12/19 02:42:39;;;;;;;55.05;21.83;;;;;;;;;;4994288;28;20077;-70
2022/12/19 02:45:06;;;;;;;61.65;21.80;;;;;;;;;;4991421;28;20396;-70
2022/12/19 02:47:32;;;;;;;43.45;14.35;;;;;;;;;;4991440;28;20027;-70
2022/12/19 02:49:57;;;;;;;53.38;13.75;;;;;;;;;;4990941;28;20390;-70
2022/12/19 02:52:22;;;;;;;53.47;16.15;;;;;;;;;;4990064;28;20072;-70
2022/12/19 02:54:49;;;;;;;49.92;19.05;;;;;;;;;;4991540;28;20015;-70
2022/12/19 02:57:18;;;;;;;46.08;20.00;;;;;;;;;;4991443;28;20303;-70
2022/12/19 02:59:49;;;;;;;47.10;19.38;;;;;;;;;;4991526;28;20018;-70
2022/12/19 03:02:22;;;;;;;36.63;16.33;;;;;;;;;;4990989;28;20021;-70
2022/12/19 03:04:58;;;;;;;57.55;23.02;;;;;;;;;;4991275;28;20014;-70
2022/12/19 03:07:35;;;;;;;51.75;18.48;;;;;;;;;;4990212;28;20512;-69
2022/12/19 03:10:11;;;;;;;50.17;18.75;;;;;;;;;;4990433;28;20026;-69
2022/12/19 03:12:38;;;;;;;51.85;20.40;;;;;;;;;;4990918;28;20049;-70
2022/12/19 03:15:04;;;;;;;48.25;19.65;;;;;;;;;;4991345;28;20022;-70
2022/12/19 03:17:33;;;;;;;64.18;25.65;;;;;;;;;;4991087;28;20018;-70
2022/12/19 03:19:59;;;;;;;59.28;24.08;;;;;;;;;;4990968;28;20022;-70
2022/12/19 03:22:24;;;;;;;62.15;26.40;;;;;;;;;;4987774;28;20388;-70
2022/12/19 03:24:49;;;;;;;45.17;15.25;;;;;;;;;;4988684;28;20028;-69
2022/12/19 03:27:28;;;;;;;53.38;20.27;;;;;;;;;;4987361;28;20014;-70
2022/12/19 03:30:02;;;;;;;39.42;16.30;;;;;;;;;;4988323;28;20149;-69
2022/12/19 03:32:28;;;;;;;42.13;14.02;;;;;;;;;;4991311;28;20113;-70
2022/12/19 03:35:08;;;;;;;56.42;25.33;;;;;;;;;;4990350;28;20037;-70
2022/12/19 03:37:35;;;;;;;55.50;18.25;;;;;;;;;;4990696;28;20010;-70
2022/12/19 03:40:01;;;;;;;54.03;21.77;;;;;;;;;;4990337;28;20026;-70
2022/12/19 03:45:14;;;;;;;56.13;20.95;;;;;;;;;;4989713;28;20080;-70
2022/12/19 03:47:43;;;;;;;51.75;20.58;;;;;;;;;;4990432;28;20015;-70
2022/12/19 03:50:09;;;;;;;59.03;17.30;;;;;;;;;;4993140;28;20755;-70
2022/12/19 03:52:39;;;;;;;36.35;13.93;;;;;;;;;;4992511;28;20033;-69
2022/12/19 03:55:10;;;;;;;56.47;21.58;;;;;;;;;;4992080;28;20022;-69
2022/12/19 03:57:40;;;;;;;54.58;21.63;;;;;;;;;;4991012;28;20034;-68
2022/12/19 04:00:07;;;;;;;53.63;20.13;;;;;;;;;;4991575;28;20018;-70
2022/12/19 04:02:35;;;;;;;51.22;19.67;;;;;;;;;;4992595;28;20014;-68
2022/12/19 04:05:02;;;;;;;67.65;25.90;;;;;;;;;;4992105;28;20380;-69
2022/12/19 04:07:27;;;;;;;60.65;26.27;;;;;;;;;;4992483;28;20037;-69
2022/12/19 04:09:54;;;;;;;56.47;19.08;;;;;;;;;;4984855;28;20050;-68
2022/12/19 04:12:22;;;;;;;37.35;16.05;;;;;;;;;;4987588;28;20023;-69
2022/12/19 04:14:48;;;;;;;35.83;16.13;;;;;;;;;;4992333;28;20022;-69
2022/12/19 04:17:32;;;;;;;67.60;29.38;;;;;;;;;;4988295;28;20021;-70
2022/12/19 04:20:00;;;;;;;46.55;17.83;;;;;;;;;;4990723;28;20026;-69
2022/12/19 04:22:31;;;;;;;68.07;29.50;;;;;;;;;;4991685;28;20006;-68
2022/12/19 04:24:58;;;;;;;46.10;18.77;;;;;;;;;;4991241;28;20030;-69
2022/12/19 04:27:23;;;;;;;48.83;18.05;;;;;;;;;;4990917;28;20076;-69
2022/12/19 04:29:54;;;;;;;44.78;18.58;;;;;;;;;;4992361;28;20026;-69
2022/12/19 04:32:19;;;;;;;49.15;17.65;;;;;;;;;;4993257;28;20125;-70
2022/12/19 04:34:44;;;;;;;71.10;28.52;;;;;;;;;;4992189;28;20058;-69
2022/12/19 04:37:10;;;;;;;45.40;17.20;;;;;;;;;;4989605;28;20034;-68
2022/12/19 04:39:35;;;;;;;63.53;27.30;;;;;;;;;;4991374;28;20378;-69
2022/12/19 04:42:00;;;;;;;49.45;17.38;;;;;;;;;;4993195;28;20030;-68
2022/12/19 04:44:25;;;;;;;70.27;25.00;;;;;;;;;;4991932;28;20025;-69
2022/12/19 04:46:50;;;;;;;52.80;19.98;;;;;;;;;;4991620;28;20746;-68
2022/12/19 04:49:16;;;;;;;42.45;14.68;;;;;;;;;;4990070;28;20561;-68
2022/12/19 04:51:41;;;;;;;42.58;16.58;;;;;;;;;;4990305;28;20035;-69
2022/12/19 04:54:06;;;;;;;36.28;10.73;;;;;;;;;;4991007;28;20110;-69
2022/12/19 04:56:31;;;;;;;49.63;13.82;;;;;;;;;;4992981;28;20038;-69
2022/12/19 04:58:57;;;;;;;57.08;22.83;;;;;;;;;;4997936;28;20018;-69
2022/12/19 05:01:22;;;;;;;47.05;21.13;;;;;;;;;;4995130;28;20601;-68
2022/12/19 05:03:48;;;;;;;41.60;13.65;;;;;;;;;;4997089;28;20110;-69
2022/12/19 05:06:13;;;;;;;63.10;24.98;;;;;;;;;;4996400;28;20055;-69
2022/12/19 05:08:40;;;;;;;53.80;20.98;;;;;;;;;;4994895;28;20029;-69
2022/12/19 05:11:06;;;;;;;37.35;14.60;;;;;;;;;;4995921;28;20050;-69
2022/12/19 05:13:31;;;;;;;60.85;24.20;;;;;;;;;;4995647;28;20412;-69
2022/12/19 05:15:57;;;;;;;40.60;17.20;;;;;;;;;;4996061;28;20015;-70
2022/12/19 05:18:22;;;;;;;53.15;23.23;;;;;;;;;;4995809;28;20011;-70
2022/12/19 05:20:47;;;;;;;39.45;16.00;;;;;;;;;;4994440;28;20020;-70
2022/12/19 05:23:13;;;;;;;65.10;23.73;;;;;;;;;;4994131;28;20026;-69
2022/12/19 05:25:38;;;;;;;66.57;24.60;;;;;;;;;;4995032;28;20058;-69
2022/12/19 05:28:03;;;;;;;41.35;16.02;;;;;;;;;;4995618;28;20052;-68
2022/12/19 05:30:28;;;;;;;72.75;27.73;;;;;;;;;;4999132;28;20017;-70
2022/12/19 05:32:53;;;;;;;54.47;24.05;;;;;;;;;;4992964;28;20023;-69
2022/12/19 05:35:19;;;;;;;54.90;22.98;;;;;;;;;;4995531;28;20471;-69
2022/12/19 05:37:47;;;;;;;68.37;26.83;;;;;;;;;;4995308;28;20042;-70
2022/12/19 05:40:12;;;;;;;58.40;23.67;;;;;;;;;;4995889;28;20277;-69
2022/12/19 05:42:37;;;;;;;74.85;28.80;;;;;;;;;;4995350;28;20018;-70
2022/12/19 05:45:03;;;;;;;47.45;17.10;;;;;;;;;;4995549;28;20106;-70
2022/12/19 05:47:28;;;;;;;58.42;24.92;;;;;;;;;;4992820;28;20018;-69
2022/12/19 05:49:53;;;;;;;56.10;22.25;;;;;;;;;;4995958;28;20022;-69
2022/12/19 05:52:18;;;;;;;33.47;14.18;;;;;;;;;;4994835;28;20014;-69
2022/12/19 05:54:44;;;;;;;42.28;19.55;;;;;;;;;;4995164;28;20026;-70
2022/12/19 05:57:09;;;;;;;38.70;15.17;;;;;;;;;;4995250;28;20054;-69
2022/12/19 05:59:34;;;;;;;54.53;18.80;;;;;;;;;;4993309;28;20281;-70
2022/12/19 06:01:59;;;;;;;55.03;17.63;;;;;;;;;;4989956;28;20502;-70
2022/12/19 06:04:24;;;;;;;58.40;24.23;;;;;;;;;;5023970;28;20109;-69
2022/12/19 06:06:49;;;;;;;38.47;14.45;;;;;;;;;;4997656;28;20512;-69
2022/12/19 06:09:15;;;;;;;28.97;13.17;;;;;;;;;;4993563;28;20018;-68
2022/12/19 06:11:40;;;;;;;44.80;15.80;;;;;;;;;;4997057;28;20277;-69
2022/12/19 06:14:05;;;;;;;55.22;21.30;;;;;;;;;;4994273;28;20025;-69
2022/12/19 06:16:30;;;;;;;40.35;17.08;;;;;;;;;;4992083;28;20021;-69
2022/12/19 06:18:56;;;;;;;58.08;25.13;;;;;;;;;;4994191;28;20025;-70
2022/12/19 06:21:21;;;;;;;43.45;17.23;;;;;;;;;;4993901;28;20014;-70
2022/12/19 06:23:46;;;;;;;46.75;19.85;;;;;;;;;;4994704;28;20491;-70
2022/12/19 06:26:13;;;;;;;44.15;16.55;;;;;;;;;;4996703;28;20466;-70
2022/12/19 06:28:38;;;;;;;32.60;12.15;;;;;;;;;;4992971;28;20113;-70
2022/12/19 06:31:04;;;;;;;33.88;13.05;;;;;;;;;;4992953;28;20479;-69
2022/12/19 06:33:30;;;;;;;35.60;13.35;;;;;;;;;;4994214;28;20073;-70
2022/12/19 06:36:02;;;;;;;38.10;15.02;;;;;;;;;;4994936;28;20368;-70
2022/12/19 06:38:29;;;;;;;51.97;18.55;;;;;;;;;;4994966;28;20086;-68
2022/12/19 06:43:38;;;;;;;48.60;22.55;;;;;;;;;;4995419;28;20106;-68
2022/12/19 06:46:03;;;;;;;44.95;17.27;;;;;;;;;;4991336;28;20069;-70
2022/12/19 06:48:28;;;;;;;59.33;22.25;;;;;;;;;;4991415;28;20034;-70
2022/12/19 06:50:54;;;;;;;47.25;16.88;;;;;;;;;;4993655;28;20025;-70
2022/12/19 06:53:19;;;;;;;43.97;20.20;;;;;;;;;;4992994;28;20361;-68
2022/12/19 06:55:44;;;;;;;27.13;11.52;;;;;;;;;;4992188;28;20502;-69
2022/12/19 06:58:09;;;;;;;42.88;14.02;;;;;;;;;;4996005;28;20619;-70
2022/12/19 07:00:35;;;;;;;23.25;10.75;;;;;;;;;;4991393;28;20651;-70
2022/12/19 07:03:00;;;;;;;41.03;15.40;;;;;;;;;;4994892;28;20019;-69
2022/12/19 07:05:25;;;;;;;44.83;18.30;;;;;;;;;;4989686;28;20623;-69
2022/12/19 07:07:51;;;;;;;31.85;12.63;;;;;;;;;;4989252;28;20041;-69
2022/12/19 07:10:16;;;;;;;35.90;18.52;;;;;;;;;;4991417;28;20018;-70
2022/12/19 07:12:41;;;;;;;31.85;12.45;;;;;;;;;;4991842;28;20026;-70
2022/12/19 07:15:07;;;;;;;49.93;17.50;;;;;;;;;;4996322;28;20073;-70
2022/12/19 07:17:32;;;;;;;48.95;18.77;;;;;;;;;;4992735;28;20253;-70
2022/12/19 07:19:57;;;;;;;28.90;12.93;;;;;;;;;;4990032;28;20046;-70
2022/12/19 07:22:25;;;;;;;51.10;17.98;;;;;;;;;;4991592;28;20101;-70
2022/12/19 07:24:50;;;;;;;36.72;17.27;;;;;;;;;;4990468;28;20018;-70
2022/12/19 07:27:15;;;;;;;38.08;17.67;;;;;;;;;;4989763;28;20493;-70
2022/12/19 07:29:41;;;;;;;43.58;21.15;;;;;;;;;;4994104;28;20022;-70
2022/12/19 07:32:06;;;;;;;34.13;15.67;;;;;;;;;;4990926;28;20057;-70
2022/12/19 07:34:31;;;;;;;44.25;15.25;;;;;;;;;;4990164;28;20281;-70
2022/12/19 07:36:56;;;;;;;36.17;13.90;;;;;;;;;;4993988;28;20018;-69
2022/12/19 07:39:21;;;;;;;50.73;17.47;;;;;;;;;;4989242;28;20754;-70
2022/12/19 07:41:47;;;;;;;43.28;15.60;;;;;;;;;;4987616;28;20281;-69
2022/12/19 07:44:12;;;;;;;42.65;18.70;;;;;;;;;;4990693;28;20048;-70
2022/12/19 07:46:37;;;;;;;44.33;18.08;;;;;;;;;;4989343;28;20045;-70
2022/12/19 07:49:02;;;;;;;60.25;25.30;;;;;;;;;;4991416;28;20030;-69
2022/12/19 07:51:28;;;;;;;45.03;18.85;;;;;;;;;;4992075;28;20153;-70
2022/12/19 07:53:53;;;;;;;31.23;14.35;;;;;;;;;;4993529;28;20033;-70
2022/12/19 07:56:18;;;;;;;30.17;13.60;;;;;;;;;;4990529;28;20022;-70
2022/12/19 07:58:43;;;;;;;44.28;19.45;;;;;;;;;;4990099;28;20418;-70
2022/12/19 08:01:09;;;;;;;34.22;12.65;;;;;;;;;;4988614;28;20023;-70
2022/12/19 08:03:34;;;;;;;27.75;11.50;;;;;;;;;;4990131;28;20085;-70
2022/12/19 08:06:00;;;;;;;46.80;19.02;;;;;;;;;;4990612;28;20475;-70
2022/12/19 08:08:26;;;;;;;41.33;18.95;;;;;;;;;;4988055;28;20041;-69
2022/12/19 08:10:51;;;;;;;23.50;12.10;;;;;;;;;;4989922;28;20018;-70
2022/12/19 08:13:16;;;;;;;41.47;19.08;;;;;;;;;;4990367;28;20102;-71
2022/12/19 08:15:41;;;;;;;52.47;18.55;;;;;;;;;;4990627;28;20073;-71
2022/12/19 08:18:07;;;;;;;46.33;17.77;;;;;;;;;;4992589;28;20030;-70
2022/12/19 08:20:32;;;;;;;41.70;16.67;;;;;;;;;;4989527;28;20364;-71
2022/12/19 08:22:57;;;;;;;42.45;12.65;;;;;;;;;;4987998;28;20493;-70
2022/12/19 08:25:23;;;;;;;49.05;18.42;;;;;;;;;;4989528;28;20018;-71
2022/12/19 08:27:48;;;;;;;37.92;11.35;;;;;;;;;;4990116;28;20026;-70
2022/12/19 08:30:13;;;;;;;33.80;12.48;;;;;;;;;;4989029;28;20499;-70
2022/12/19 08:32:39;;;;;;;39.03;13.00;;;;;;;;;;4991579;28;20022;-71
2022/12/19 08:35:05;;;;;;;42.00;13.32;;;;;;;;;;4993610;28;20419;-70
2022/12/19 08:37:30;;;;;;;43.95;14.27;;;;;;;;;;4991956;28;20068;-70
2022/12/19 08:39:55;;;;;;;35.00;12.67;;;;;;;;;;4993687;28;20387;-71
2022/12/19 08:42:21;;;;;;;49.33;19.75;;;;;;;;;;4993015;28;20261;-70
2022/12/19 08:44:46;;;;;;;24.97;10.67;;;;;;;;;;4993274;28;20023;-70
2022/12/19 08:47:11;;;;;;;23.05;9.77;;;;;;;;;;4994933;28;20906;-70
2022/12/19 08:49:36;;;;;;;47.35;16.98;;;;;;;;;;4993155;28;20033;-71
2022/12/19 08:52:01;;;;;;;37.63;14.85;;;;;;;;;;4990505;28;20026;-71
2022/12/19 08:54:26;;;;;;;35.33;13.18;;;;;;;;;;4993005;28;20015;-69
2022/12/19 08:56:52;;;;;;;21.45;6.85;;;;;;;;;;4994348;28;20018;-71
2022/12/19 08:59:17;;;;;;;29.67;12.67;;;;;;;;;;4994631;28;20022;-70
2022/12/19 09:01:42;;;;;;;23.40;9.70;;;;;;;;;;4993021;28;20673;-71
2022/12/19 09:04:07;;;;;;;36.70;14.48;;;;;;;;;;4993314;28;20038;-70
2022/12/19 09:06:32;;;;;;;36.67;15.10;;;;;;;;;;4992456;28;20030;-71
2022/12/19 09:08:58;;;;;;;35.67;11.48;;;;;;;;;;4992850;28;20257;-70
2022/12/19 09:11:24;;;;;;;42.90;16.55;;;;;;;;;;4994782;28;20034;-70
2022/12/19 09:13:50;;;;;;;28.67;11.82;;;;;;;;;;4993768;28;20427;-70
2022/12/19 09:16:15;;;;;;;34.08;12.13;;;;;;;;;;4994991;28;20479;-70
2022/12/19 09:18:42;;;;;;;37.30;14.77;;;;;;;;;;4992505;28;20037;-71
2022/12/19 09:21:07;;;;;;;36.88;17.92;;;;;;;;;;4991026;28;20329;-70
2022/12/19 09:23:33;;;;;;;35.63;14.98;;;;;;;;;;4991454;28;20034;-71
2022/12/19 09:26:06;;;;;;;31.98;12.27;;;;;;;;;;4991649;28;20478;-71
2022/12/19 09:28:32;;;;;;;39.25;17.98;;;;;;;;;;4991029;28;20015;-70
2022/12/19 09:30:58;;;;;;;27.92;10.30;;;;;;;;;;4993223;28;20053;-69
2022/12/19 09:33:23;;;;;;;37.63;15.02;;;;;;;;;;4995728;28;20033;-69
2022/12/19 09:35:50;;;;;;;35.22;16.70;;;;;;;;;;4990401;28;20483;-70
2022/12/19 09:38:15;;;;;;;32.10;13.68;;;;;;;;;;4990404;28;20482;-71
2022/12/19 09:40:49;;;;;;;28.83;12.02;;;;;;;;;;4991000;28;20066;-70
2022/12/19 09:43:30;;;;;;;25.10;8.88;;;;;;;;;;4989524;28;20026;-70
2022/12/19 09:46:06;;;;;;;23.02;10.35;;;;;;;;;;4993232;28;20022;-70
2022/12/19 09:48:35;;;;;;;31.20;10.93;;;;;;;;;;4990807;28;20591;-71
2022/12/19 09:51:13;;;;;;;25.52;10.48;;;;;;;;;;4989751;28;20515;-70
2022/12/19 09:53:47;;;;;;;25.52;10.55;;;;;;;;;;4991392;28;20026;-73
2022/12/19 09:56:13;;;;;;;29.55;13.43;;;;;;;;;;4993186;28;20010;-70
2022/12/19 09:58:45;;;;;;;17.33;8.50;;;;;;;;;;4992889;28;20025;-73
2022/12/19 10:01:37;;;;;;;41.25;19.23;;;;;;;;;;4993603;28;20079;-72
2022/12/19 10:04:04;;;;;;;20.20;8.95;;;;;;;;;;4991292;28;20027;-69
2022/12/19 10:06:30;;;;;;;34.67;16.42;;;;;;;;;;5019114;28;20026;-70
2022/12/19 10:08:55;;;;;;;22.02;8.77;;;;;;;;;;4992920;28;20021;-70
2022/12/19 10:11:32;;;;;;;31.52;11.68;;;;;;;;;;4992631;28;20025;-73
2022/12/19 10:14:16;;;;;;;26.67;10.93;;;;;;;;;;4992777;28;20018;-71
2022/12/19 10:16:47;;;;;;;32.25;10.90;;;;;;;;;;4992234;28;20049;-71
2022/12/19 10:19:17;;;;;;;36.10;15.07;;;;;;;;;;4990681;28;20022;-70
2022/12/19 10:21:42;;;;;;;31.73;12.45;;;;;;;;;;4992673;28;20018;-70
2022/12/19 10:24:23;;;;;;;27.38;9.52;;;;;;;;;;4990560;28;20522;-70
2022/12/19 10:26:52;;;;;;;27.38;10.95;;;;;;;;;;4992391;28;20262;-70
2022/12/19 10:29:36;;;;;;;28.88;11.10;;;;;;;;;;4988658;28;20026;-70
2022/12/19 10:32:06;;;;;;;37.72;14.45;;;;;;;;;;4992339;28;20490;-73
2022/12/19 10:34:35;;;;;;;28.85;13.02;;;;;;;;;;5004375;28;20030;-73
2022/12/19 10:37:06;;;;;;;39.42;16.85;;;;;;;;;;4990006;28;20416;-70
2022/12/19 10:39:45;;;;;;;44.20;17.85;;;;;;;;;;4988963;28;20072;-73
2022/12/19 10:42:30;;;;;;;32.20;10.68;;;;;;;;;;4990478;28;20018;-70
2022/12/19 10:44:56;;;;;;;42.92;15.88;;;;;;;;;;4993145;28;20033;-70
2022/12/19 10:47:21;;;;;;;25.40;10.38;;;;;;;;;;4990343;28;20468;-70
2022/12/19 10:49:48;;;;;;;34.30;12.68;;;;;;;;;;4992452;28;20030;-72
2022/12/19 10:52:13;;;;;;;19.73;7.80;;;;;;;;;;4992474;28;20479;-70
2022/12/19 10:54:40;;;;;;;25.20;8.32;;;;;;;;;;4991192;28;20084;-70
2022/12/19 10:57:20;;;;;;;34.17;15.50;;;;;;;;;;4991761;28;20030;-69
2022/12/19 10:59:55;;;;;;;16.85;7.07;;;;;;;;;;4991063;28;20506;-70
2022/12/19 11:02:28;;;;;;;26.60;9.63;;;;;;;;;;4990884;28;20026;-70
2022/12/19 11:04:53;;;;;;;31.13;13.98;;;;;;;;;;4990338;28;20029;-70
2022/12/19 11:07:19;;;;;;;20.98;8.48;;;;;;;;;;4989167;28;20105;-70
2022/12/19 11:09:45;;;;;;;28.77;12.07;;;;;;;;;;4989583;28;20176;-70
2022/12/19 11:12:12;;;;;;;28.15;11.32;;;;;;;;;;4990179;28;20050;-70
2022/12/19 11:14:49;;;;;;;35.17;13.52;;;;;;;;;;4989996;28;20050;-70
2022/12/19 11:17:47;;;;;;;36.70;13.45;;;;;;;;;;4990399;28;20029;-70
2022/12/19 11:20:13;;;;;;;30.33;9.70;;;;;;;;;;4962240;28;20180;-72
2022/12/19 11:22:39;;;;;;;22.25;8.75;;;;;;;;;;4988810;28;20021;-71
2022/12/19 11:25:04;;;;;;;39.20;17.10;;;;;;;;;;4990411;28;20018;-70
2022/12/19 11:27:33;;;;;;;40.15;17.80;;;;;;;;;;4990813;28;20017;-70
2022/12/19 11:29:59;;;;;;;42.80;14.55;;;;;;;;;;4991162;28;20101;-70
2022/12/19 11:32:31;;;;;;;27.35;11.15;;;;;;;;;;4989830;28;20403;-72
2022/12/19 11:35:14;;;;;;;21.20;8.10;;;;;;;;;;4988563;28;20049;-69
2022/12/19 11:37:43;;;;;;;36.80;13.57;;;;;;;;;;4990173;28;20377;-70
2022/12/19 11:40:27;;;;;;;32.75;13.45;;;;;;;;;;4990319;28;20054;-71
2022/12/19 11:42:58;;;;;;;25.40;10.63;;;;;;;;;;4988673;28;20037;-70
2022/12/19 11:45:43;;;;;;;35.83;15.38;;;;;;;;;;4995338;28;20022;-72
2022/12/19 11:48:19;;;;;;;27.30;9.20;;;;;;;;;;4989010;28;20058;-70
2022/12/19 11:51:13;;;;;;;34.60;14.82;;;;;;;;;;4984665;28;20018;-72
2022/12/19 11:53:41;;;;;;;23.80;9.98;;;;;;;;;;4973280;28;20026;-73
2022/12/19 11:56:18;;;;;;;27.90;11.10;;;;;;;;;;4990625;28;20105;-73
2022/12/19 11:58:48;;;;;;;22.48;7.68;;;;;;;;;;4986751;28;20035;-70
2022/12/19 12:01:32;;;;;;;36.42;14.60;;;;;;;;;;4986627;28;20018;-72
2022/12/19 12:04:06;;;;;;;18.98;7.45;;;;;;;;;;4988883;28;20033;-72
2022/12/19 12:06:38;;;;;;;26.23;11.27;;;;;;;;;;4988955;28;20026;-73
2022/12/19 12:09:30;;;;;;;24.98;12.05;;;;;;;;;;4996460;28;20022;-69
2022/12/19 12:12:04;;;;;;;27.52;11.02;;;;;;;;;;4990731;28;20038;-72
2022/12/19 12:14:29;;;;;;;35.00;13.85;;;;;;;;;;4992524;28;20029;-71
2022/12/19 12:16:59;;;;;;;18.40;7.60;;;;;;;;;;4994829;28;20014;-69
2022/12/19 12:19:37;;;;;;;23.02;9.30;;;;;;;;;;4993808;28;20027;-74
2022/12/19 12:22:17;;;;;;;20.67;9.20;;;;;;;;;;4992309;28;20494;-70
2022/12/19 12:24:47;;;;;;;23.65;9.98;;;;;;;;;;4991312;28;20488;-69
2022/12/19 12:27:12;;;;;;;;;;;;;;;;;;4993207;28;20034;-69
2022/12/19 12:29:37;;;;;;;36.75;14.80;;;;;;;;;;4992671;28;19913;-69
2022/12/19 12:32:09;;;;;;;24.05;11.77;;;;;;;;;;4993402;28;20503;-69
2022/12/19 12:34:37;;;;;;;18.48;8.45;;;;;;;;;;4993792;28;20026;-71
2022/12/19 12:37:23;;;;;;;39.15;13.65;;;;;;;;;;4993591;28;20010;-69
2022/12/19 12:40:27;;;;;;;33.45;12.88;;;;;;;;;;4988891;28;20479;-70
2022/12/19 12:42:58;;;;;;;30.00;13.00;;;;;;;;;;4955560;28;20046;-69
2022/12/19 12:45:35;;;;;;;32.50;12.23;;;;;;;;;;4947270;28;20547;-69
2022/12/19 12:48:00;;;;;;;33.55;13.73;;;;;;;;;;4975358;28;20494;-71
2022/12/19 12:50:26;;;;;;;20.92;8.60;;;;;;;;;;4993624;28;20098;-69
2022/12/19 12:52:53;;;;;;;30.60;13.85;;;;;;;;;;4991901;28;20022;-69
2022/12/19 12:55:29;;;;;;;30.63;12.80;;;;;;;;;;4995281;28;20014;-71
2022/12/19 12:57:55;;;;;;;26.75;9.18;;;;;;;;;;4991257;28;20109;-71
2022/12/19 13:00:21;;;;;;;27.40;11.82;;;;;;;;;;4992242;28;20105;-69
2022/12/19 13:03:13;;;;;;;21.98;9.93;;;;;;;;;;4992050;28;20062;-72
2022/12/19 13:05:44;;;;;;;15.57;6.38;;;;;;;;;;4989309;28;20038;-69
2022/12/19 13:08:28;;;;;;;36.58;15.52;;;;;;;;;;4993372;28;20016;-69
2022/12/19 13:10:55;;;;;;;21.70;9.02;;;;;;;;;;4993884;28;20022;-73
2022/12/19 13:13:40;;;;;;;30.15;11.40;;;;;;;;;;4993279;28;20475;-69
2022/12/19 13:16:25;;;;;;;35.58;15.35;;;;;;;;;;4991755;28;20076;-69
2022/12/19 13:19:11;;;;;;;27.08;11.65;;;;;;;;;;4989345;28;20037;-69
2022/12/19 13:21:56;;;;;;;21.63;8.10;;;;;;;;;;4992032;28;20379;-69
2022/12/19 13:24:22;;;;;;;33.28;14.18;;;;;;;;;;4988297;28;20072;-69
2022/12/19 13:26:49;;;;;;;27.48;14.15;;;;;;;;;;4988935;28;20445;-68
2022/12/19 13:29:28;;;;;;;32.65;14.57;;;;;;;;;;4992906;28;20483;-70
2022/12/19 13:32:13;;;;;;;22.83;9.38;;;;;;;;;;4992364;28;20034;-69
2022/12/19 13:34:38;;;;;;;18.90;7.88;;;;;;;;;;4992246;28;20026;-69
2022/12/19 13:37:06;;;;;;;25.60;8.52;;;;;;;;;;4996995;28;20370;-69
2022/12/19 13:39:32;;;;;;;21.80;10.85;;;;;;;;;;4991222;28;20484;-69
2022/12/19 13:44:49;;;;;;;15.80;7.07;;;;;;;;;;4989671;28;20033;-71
2022/12/19 13:47:15;;;;;;;29.80;10.50;;;;;;;;;;4987374;28;20423;-72
2022/12/19 13:49:41;;;;;;;24.42;10.40;;;;;;;;;;4996031;28;20488;-70
2022/12/19 13:52:09;;;;;;;23.73;11.02;;;;;;;;;;4996458;28;20105;-70
2022/12/19 13:54:48;;;;;;;17.08;8.60;;;;;;;;;;4996146;28;20014;-69
2022/12/19 13:57:27;;;;;;;23.25;10.10;;;;;;;;;;5000818;28;20022;-69
2022/12/19 13:59:54;;;;;;;17.08;7.18;;;;;;;;;;4995862;28;20487;-71
2022/12/19 14:02:25;;;;;;;22.33;9.75;;;;;;;;;;4995043;28;20061;-71
2022/12/19 14:04:50;;;;;;;17.58;7.07;;;;;;;;;;5003262;28;20450;-68
2022/12/19 14:07:36;;;;;;;31.48;14.18;;;;;;;;;;4996083;28;20382;-70
2022/12/19 14:10:03;;;;;;;26.17;10.10;;;;;;;;;;4990383;28;20435;-71
2022/12/19 14:15:34;;;;;;;31.95;12.70;;;;;;;;;;4990601;28;20057;-69
2022/12/19 14:18:19;;;;;;;22.45;9.27;;;;;;;;;;4990533;28;20036;-73
2022/12/19 14:20:44;;;;;;;16.77;7.00;;;;;;;;;;4992186;28;20065;-69
2022/12/19 14:23:10;;;;;;;20.20;7.10;;;;;;;;;;4992330;28;20022;-69
2022/12/19 14:25:35;;;;;;;15.75;6.63;;;;;;;;;;4991988;28;20403;-69
2022/12/19 14:28:05;;;;;;;23.83;6.97;;;;;;;;;;4990029;28;20022;-69
2022/12/19 14:30:33;;;;;;;20.67;7.25;;;;;;;;;;4991022;28;20091;-72
2022/12/19 14:33:03;;;;;;;24.25;9.18;;;;;;;;;;4991250;28;20057;-72
2022/12/19 14:35:31;;;;;;;13.68;7.15;;;;;;;;;;4994701;28;20018;-72
2022/12/19 14:38:01;;;;;;;16.65;7.35;;;;;;;;;;4990277;28;20503;-69
2022/12/19 14:40:30;;;;;;;17.48;9.27;;;;;;;;;;4991501;28;20385;-70